sensor_id;sensor_type;location;lat;lon;timestamp;temperature;humidity
63260;DHT22;49390;51.380;0.098;2023-06-22T00:01:39;19.40;99.90
63260;DHT22;49390;51.380;0.098;2023-06-22T00:04:10;19.40;99.90
63260;DHT22;49390;51.380;0.098;2023-06-22T00:06:41;19.30;99.90
63260;DHT22;49390;51.380;0.098;2023-06-22T00:09:11;19.30;99.90
63260;DHT22;49390;51.380;0.098;2023-06-22T00:11:42;19.30;99.90
63260;DHT22;49390;51.380;0.098;2023-06-22T00:14:14;19.20;99.90
63260;DHT22;49390;51.380;0.098;2023-06-22T00:16:48;19.20;99.90
63260;DHT22;49390;51.380;0.098;2023-06-22T00:19:18;19.20;99.90
63260;DHT22;49390;51.380;0.098;2023-06-22T00:21:53;19.10;99.90
63260;DHT22;49390;51.380;0.098;2023-06-22T00:24:24;19.10;99.90
63260;DHT22;49390;51.380;0.098;2023-06-22T00:26:52;19.10;99.90
63260;DHT22;49390;51.380;0.098;2023-06-22T00:29:20;19.10;99.90
63260;DHT22;49390;51.380;0.098;2023-06-22T00:31:51;19.00;99.90
63260;DHT22;49390;51.380;0.098;2023-06-22T00:34:21;19.00;99.90
63260;DHT22;49390;51.380;0.098;2023-06-22T00:36:51;19.00;99.90
63260;DHT22;49390;51.380;0.098;2023-06-22T00:39:25;18.90;99.90
63260;DHT22;49390;51.380;0.098;2023-06-22T00:41:56;18.90;99.90
63260;DHT22;49390;51.380;0.098;2023-06-22T00:44:26;18.90;99.90
63260;DHT22;49390;51.380;0.098;2023-06-22T00:46:57;18.80;99.90
63260;DHT22;49390;51.380;0.098;2023-06-22T00:49:30;18.80;99.90
63260;DHT22;49390;51.380;0.098;2023-06-22T00:51:59;18.80;99.90
63260;DHT22;49390;51.380;0.098;2023-06-22T00:54:27;18.70;99.90
63260;DHT22;49390;51.380;0.098;2023-06-22T00:56:57;18.70;99.90
63260;DHT22;49390;51.380;0.098;2023-06-22T00:59:28;18.70;99.90
63260;DHT22;49390;51.380;0.098;2023-06-22T01:02:01;18.70;99.90
63260;DHT22;49390;51.380;0.098;2023-06-22T01:04:35;18.70;99.90
63260;DHT22;49390;51.380;0.098;2023-06-22T01:09:59;18.60;99.90
63260;DHT22;49390;51.380;0.098;2023-06-22T01:12:42;18.50;99.90
63260;DHT22;49390;51.380;0.098;2023-06-22T01:15:21;18.40;99.90
63260;DHT22;49390;51.380;0.098;2023-06-22T01:17:52;18.30;99.90
63260;DHT22;49390;51.380;0.098;2023-06-22T01:20:21;18.20;99.90
63260;DHT22;49390;51.380;0.098;2023-06-22T01:23:02;18.20;99.90
63260;DHT22;49390;51.380;0.098;2023-06-22T01:25:48;18.20;99.90
63260;DHT22;49390;51.380;0.098;2023-06-22T01:31:59;18.10;99.90
63260;DHT22;49390;51.380;0.098;2023-06-22T01:34:30;17.90;99.90
63260;DHT22;49390;51.380;0.098;2023-06-22T01:37:06;17.90;99.90
63260;DHT22;49390;51.380;0.098;2023-06-22T01:39:35;17.90;99.90
63260;DHT22;49390;51.380;0.098;2023-06-22T01:42:04;17.90;99.90
63260;DHT22;49390;51.380;0.098;2023-06-22T01:44:34;17.90;99.90
63260;DHT22;49390;51.380;0.098;2023-06-22T01:47:02;17.90;99.90
63260;DHT22;49390;51.380;0.098;2023-06-22T01:49:31;18.00;99.90
63260;DHT22;49390;51.380;0.098;2023-06-22T01:51:59;17.90;99.90
63260;DHT22;49390;51.380;0.098;2023-06-22T01:54:32;17.90;99.90
63260;DHT22;49390;51.380;0.098;2023-06-22T01:57:04;17.90;99.90
63260;DHT22;49390;51.380;0.098;2023-06-22T01:59:37;17.90;99.90
63260;DHT22;49390;51.380;0.098;2023-06-22T02:02:10;17.90;99.90
63260;DHT22;49390;51.380;0.098;2023-06-22T02:04:48;17.80;99.90
63260;DHT22;49390;51.380;0.098;2023-06-22T02:07:19;17.80;99.90
63260;DHT22;49390;51.380;0.098;2023-06-22T02:09:51;17.70;99.90
63260;DHT22;49390;51.380;0.098;2023-06-22T02:12:24;17.60;99.90
63260;DHT22;49390;51.380;0.098;2023-06-22T02:14:56;17.60;99.90
63260;DHT22;49390;51.380;0.098;2023-06-22T02:17:33;17.60;99.90
63260;DHT22;49390;51.380;0.098;2023-06-22T02:20:12;17.60;99.90
63260;DHT22;49390;51.380;0.098;2023-06-22T02:22:42;17.60;99.90
63260;DHT22;49390;51.380;0.098;2023-06-22T02:25:12;17.60;99.90
63260;DHT22;49390;51.380;0.098;2023-06-22T02:27:45;17.60;99.90
63260;DHT22;49390;51.380;0.098;2023-06-22T02:30:16;17.60;99.90
63260;DHT22;49390;51.380;0.098;2023-06-22T02:32:44;17.60;99.90
63260;DHT22;49390;51.380;0.098;2023-06-22T02:35:18;17.50;99.90
63260;DHT22;49390;51.380;0.098;2023-06-22T02:37:49;17.50;99.90
63260;DHT22;49390;51.380;0.098;2023-06-22T02:40:19;17.50;99.90
63260;DHT22;49390;51.380;0.098;2023-06-22T02:42:47;17.50;99.90
63260;DHT22;49390;51.380;0.098;2023-06-22T02:45:20;17.50;99.90
63260;DHT22;49390;51.380;0.098;2023-06-22T02:47:51;17.40;99.90
63260;DHT22;49390;51.380;0.098;2023-06-22T02:50:20;17.40;99.90
63260;DHT22;49390;51.380;0.098;2023-06-22T02:52:50;17.40;99.90
63260;DHT22;49390;51.380;0.098;2023-06-22T02:55:24;17.40;99.90
63260;DHT22;49390;51.380;0.098;2023-06-22T02:58:00;17.40;99.90
63260;DHT22;49390;51.380;0.098;2023-06-22T03:00:35;17.30;99.90
63260;DHT22;49390;51.380;0.098;2023-06-22T03:03:08;17.30;99.90
63260;DHT22;49390;51.380;0.098;2023-06-22T03:05:39;17.20;99.90
63260;DHT22;49390;51.380;0.098;2023-06-22T03:08:08;17.20;99.90
63260;DHT22;49390;51.380;0.098;2023-06-22T03:10:38;17.20;99.90
63260;DHT22;49390;51.380;0.098;2023-06-22T03:13:07;17.10;99.90
63260;DHT22;49390;51.380;0.098;2023-06-22T03:15:38;17.10;99.90
63260;DHT22;49390;51.380;0.098;2023-06-22T03:18:08;17.10;99.90
63260;DHT22;49390;51.380;0.098;2023-06-22T03:20:37;17.10;99.90
63260;DHT22;49390;51.380;0.098;2023-06-22T03:23:05;17.10;99.90
63260;DHT22;49390;51.380;0.098;2023-06-22T03:25:34;17.10;99.90
63260;DHT22;49390;51.380;0.098;2023-06-22T03:28:03;17.10;99.90
63260;DHT22;49390;51.380;0.098;2023-06-22T03:30:33;17.00;99.90
63260;DHT22;49390;51.380;0.098;2023-06-22T03:33:02;17.00;99.90
63260;DHT22;49390;51.380;0.098;2023-06-22T03:35:30;17.00;99.90
63260;DHT22;49390;51.380;0.098;2023-06-22T03:38:01;17.00;99.90
63260;DHT22;49390;51.380;0.098;2023-06-22T03:40:34;17.00;99.90
63260;DHT22;49390;51.380;0.098;2023-06-22T03:43:02;16.90;99.90
63260;DHT22;49390;51.380;0.098;2023-06-22T03:45:31;16.90;99.90
63260;DHT22;49390;51.380;0.098;2023-06-22T03:48:01;16.90;99.90
63260;DHT22;49390;51.380;0.098;2023-06-22T03:50:29;16.90;99.90
63260;DHT22;49390;51.380;0.098;2023-06-22T03:53:00;16.80;99.90
63260;DHT22;49390;51.380;0.098;2023-06-22T03:55:33;16.80;99.90
63260;DHT22;49390;51.380;0.098;2023-06-22T03:58:04;16.80;99.90
63260;DHT22;49390;51.380;0.098;2023-06-22T04:00:33;16.80;99.90
63260;DHT22;49390;51.380;0.098;2023-06-22T04:03:02;16.80;99.90
63260;DHT22;49390;51.380;0.098;2023-06-22T04:05:30;16.90;99.90
63260;DHT22;49390;51.380;0.098;2023-06-22T04:08:01;16.90;99.90
63260;DHT22;49390;51.380;0.098;2023-06-22T04:10:29;16.90;99.90
63260;DHT22;49390;51.380;0.098;2023-06-22T04:12:58;16.80;99.90
63260;DHT22;49390;51.380;0.098;2023-06-22T04:15:29;16.80;99.90
63260;DHT22;49390;51.380;0.098;2023-06-22T04:17:57;16.80;99.90
63260;DHT22;49390;51.380;0.098;2023-06-22T04:20:28;16.80;99.90
63260;DHT22;49390;51.380;0.098;2023-06-22T04:22:57;16.80;99.90
63260;DHT22;49390;51.380;0.098;2023-06-22T04:25:27;16.80;99.90
63260;DHT22;49390;51.380;0.098;2023-06-22T04:28:00;16.80;99.90
63260;DHT22;49390;51.380;0.098;2023-06-22T04:30:33;16.80;99.90
63260;DHT22;49390;51.380;0.098;2023-06-22T04:33:02;16.80;99.90
63260;DHT22;49390;51.380;0.098;2023-06-22T04:35:30;16.90;99.90
63260;DHT22;49390;51.380;0.098;2023-06-22T04:37:58;16.90;99.90
63260;DHT22;49390;51.380;0.098;2023-06-22T04:40:27;16.90;99.90
63260;DHT22;49390;51.380;0.098;2023-06-22T04:43:02;16.80;99.90
63260;DHT22;49390;51.380;0.098;2023-06-22T04:45:30;16.90;99.90
63260;DHT22;49390;51.380;0.098;2023-06-22T04:48:01;16.90;99.90
63260;DHT22;49390;51.380;0.098;2023-06-22T04:50:29;17.00;99.90
63260;DHT22;49390;51.380;0.098;2023-06-22T04:53:01;17.00;99.90
63260;DHT22;49390;51.380;0.098;2023-06-22T04:55:33;17.00;99.90
63260;DHT22;49390;51.380;0.098;2023-06-22T04:58:01;17.00;99.90
63260;DHT22;49390;51.380;0.098;2023-06-22T05:00:37;17.10;99.90
63260;DHT22;49390;51.380;0.098;2023-06-22T05:03:12;17.10;99.90
63260;DHT22;49390;51.380;0.098;2023-06-22T05:05:47;17.20;99.90
63260;DHT22;49390;51.380;0.098;2023-06-22T05:08:16;17.20;99.90
63260;DHT22;49390;51.380;0.098;2023-06-22T05:10:45;17.20;99.90
63260;DHT22;49390;51.380;0.098;2023-06-22T05:13:32;17.20;99.90
63260;DHT22;49390;51.380;0.098;2023-06-22T05:16:00;17.20;99.90
63260;DHT22;49390;51.380;0.098;2023-06-22T05:18:32;17.30;99.90
63260;DHT22;49390;51.380;0.098;2023-06-22T05:21:01;17.40;99.90
63260;DHT22;49390;51.380;0.098;2023-06-22T05:23:36;17.50;99.90
63260;DHT22;49390;51.380;0.098;2023-06-22T05:26:06;17.50;99.90
63260;DHT22;49390;51.380;0.098;2023-06-22T05:28:37;17.60;99.90
63260;DHT22;49390;51.380;0.098;2023-06-22T05:31:06;17.70;99.90
63260;DHT22;49390;51.380;0.098;2023-06-22T05:33:34;17.90;99.90
63260;DHT22;49390;51.380;0.098;2023-06-22T05:36:07;18.00;99.90
63260;DHT22;49390;51.380;0.098;2023-06-22T05:38:36;18.10;99.90
63260;DHT22;49390;51.380;0.098;2023-06-22T05:41:09;18.20;99.90
63260;DHT22;49390;51.380;0.098;2023-06-22T05:43:37;18.30;99.90
63260;DHT22;49390;51.380;0.098;2023-06-22T05:46:10;18.40;99.90
63260;DHT22;49390;51.380;0.098;2023-06-22T05:48:42;18.50;99.90
63260;DHT22;49390;51.380;0.098;2023-06-22T05:51:11;18.50;99.90
63260;DHT22;49390;51.380;0.098;2023-06-22T05:53:49;18.60;99.90
63260;DHT22;49390;51.380;0.098;2023-06-22T05:56:17;18.60;99.90
63260;DHT22;49390;51.380;0.098;2023-06-22T05:58:46;18.70;99.90
63260;DHT22;49390;51.380;0.098;2023-06-22T06:01:17;18.80;99.90
63260;DHT22;49390;51.380;0.098;2023-06-22T06:03:45;18.90;99.90
63260;DHT22;49390;51.380;0.098;2023-06-22T06:06:14;18.90;99.90
63260;DHT22;49390;51.380;0.098;2023-06-22T06:08:42;19.00;99.90
63260;DHT22;49390;51.380;0.098;2023-06-22T06:11:12;19.10;99.90
63260;DHT22;49390;51.380;0.098;2023-06-22T06:13:45;19.20;99.90
63260;DHT22;49390;51.380;0.098;2023-06-22T06:16:16;19.30;99.90
63260;DHT22;49390;51.380;0.098;2023-06-22T06:18:44;19.40;99.90
63260;DHT22;49390;51.380;0.098;2023-06-22T06:21:12;19.40;99.90
63260;DHT22;49390;51.380;0.098;2023-06-22T06:23:40;19.50;99.90
63260;DHT22;49390;51.380;0.098;2023-06-22T06:26:11;19.60;99.90
63260;DHT22;49390;51.380;0.098;2023-06-22T06:28:41;19.70;99.90
63260;DHT22;49390;51.380;0.098;2023-06-22T06:31:10;19.70;99.90
63260;DHT22;49390;51.380;0.098;2023-06-22T06:33:40;19.80;99.90
63260;DHT22;49390;51.380;0.098;2023-06-22T06:36:11;19.90;99.90
63260;DHT22;49390;51.380;0.098;2023-06-22T06:38:41;19.90;99.90
63260;DHT22;49390;51.380;0.098;2023-06-22T06:41:10;20.00;99.90
63260;DHT22;49390;51.380;0.098;2023-06-22T06:43:38;20.20;99.90
63260;DHT22;49390;51.380;0.098;2023-06-22T06:46:09;20.50;99.90
63260;DHT22;49390;51.380;0.098;2023-06-22T06:48:37;20.90;99.90
63260;DHT22;49390;51.380;0.098;2023-06-22T06:51:05;21.40;99.90
63260;DHT22;49390;51.380;0.098;2023-06-22T06:53:41;21.60;99.90
63260;DHT22;49390;51.380;0.098;2023-06-22T06:56:13;21.80;99.90
63260;DHT22;49390;51.380;0.098;2023-06-22T06:58:43;22.00;99.90
63260;DHT22;49390;51.380;0.098;2023-06-22T07:01:13;22.20;99.90
63260;DHT22;49390;51.380;0.098;2023-06-22T07:03:43;22.50;99.90
63260;DHT22;49390;51.380;0.098;2023-06-22T07:06:13;22.70;99.90
63260;DHT22;49390;51.380;0.098;2023-06-22T07:08:47;22.90;99.90
63260;DHT22;49390;51.380;0.098;2023-06-22T07:11:15;23.20;99.90
63260;DHT22;49390;51.380;0.098;2023-06-22T07:13:46;23.40;99.90
63260;DHT22;49390;51.380;0.098;2023-06-22T07:16:16;23.60;99.90
63260;DHT22;49390;51.380;0.098;2023-06-22T07:18:47;23.70;99.90
63260;DHT22;49390;51.380;0.098;2023-06-22T07:21:15;23.80;99.90
63260;DHT22;49390;51.380;0.098;2023-06-22T07:23:43;23.90;99.90
63260;DHT22;49390;51.380;0.098;2023-06-22T07:26:11;24.00;99.90
63260;DHT22;49390;51.380;0.098;2023-06-22T07:28:46;24.00;99.90
63260;DHT22;49390;51.380;0.098;2023-06-22T07:31:14;24.00;99.90
63260;DHT22;49390;51.380;0.098;2023-06-22T07:33:42;24.00;99.90
63260;DHT22;49390;51.380;0.098;2023-06-22T07:36:11;24.10;99.90
63260;DHT22;49390;51.380;0.098;2023-06-22T07:38:39;24.20;99.90
63260;DHT22;49390;51.380;0.098;2023-06-22T07:41:12;24.50;99.90
63260;DHT22;49390;51.380;0.098;2023-06-22T07:43:46;24.90;99.70
63260;DHT22;49390;51.380;0.098;2023-06-22T07:46:15;25.20;97.80
63260;DHT22;49390;51.380;0.098;2023-06-22T07:48:44;25.50;95.30
63260;DHT22;49390;51.380;0.098;2023-06-22T07:51:14;25.90;93.10
63260;DHT22;49390;51.380;0.098;2023-06-22T07:53:45;26.20;91.10
63260;DHT22;49390;51.380;0.098;2023-06-22T07:56:13;26.40;88.50
63260;DHT22;49390;51.380;0.098;2023-06-22T07:58:47;26.60;86.40
63260;DHT22;49390;51.380;0.098;2023-06-22T08:01:19;26.80;84.60
63260;DHT22;49390;51.380;0.098;2023-06-22T08:03:49;27.00;82.10
63260;DHT22;49390;51.380;0.098;2023-06-22T08:06:20;27.20;80.50
63260;DHT22;49390;51.380;0.098;2023-06-22T08:08:50;27.40;78.00
63260;DHT22;49390;51.380;0.098;2023-06-22T08:11:22;27.60;76.70
63260;DHT22;49390;51.380;0.098;2023-06-22T08:13:53;27.70;75.10
63260;DHT22;49390;51.380;0.098;2023-06-22T08:16:27;27.80;74.10
63260;DHT22;49390;51.380;0.098;2023-06-22T08:18:55;28.00;72.50
63260;DHT22;49390;51.380;0.098;2023-06-22T08:21:26;28.20;70.50
63260;DHT22;49390;51.380;0.098;2023-06-22T08:23:54;28.20;69.30
63260;DHT22;49390;51.380;0.098;2023-06-22T08:26:25;28.30;68.30
63260;DHT22;49390;51.380;0.098;2023-06-22T08:28:58;28.30;68.20
63260;DHT22;49390;51.380;0.098;2023-06-22T08:31:27;28.40;68.10
63260;DHT22;49390;51.380;0.098;2023-06-22T08:33:55;28.50;67.10
63260;DHT22;49390;51.380;0.098;2023-06-22T08:36:26;28.70;66.00
63260;DHT22;49390;51.380;0.098;2023-06-22T08:38:57;28.90;65.10
63260;DHT22;49390;51.380;0.098;2023-06-22T08:41:31;29.00;63.50
63260;DHT22;49390;51.380;0.098;2023-06-22T08:44:02;29.10;63.40
63260;DHT22;49390;51.380;0.098;2023-06-22T08:46:34;29.20;63.40
63260;DHT22;49390;51.380;0.098;2023-06-22T08:49:03;29.30;62.80
63260;DHT22;49390;51.380;0.098;2023-06-22T08:51:35;29.40;62.10
63260;DHT22;49390;51.380;0.098;2023-06-22T08:54:03;29.40;61.00
63260;DHT22;49390;51.380;0.098;2023-06-22T08:56:32;29.50;61.00
63260;DHT22;49390;51.380;0.098;2023-06-22T08:59:05;29.60;60.10
63260;DHT22;49390;51.380;0.098;2023-06-22T09:01:38;29.70;59.70
63260;DHT22;49390;51.380;0.098;2023-06-22T09:04:08;29.90;59.20
63260;DHT22;49390;51.380;0.098;2023-06-22T09:06:42;30.00;58.80
63260;DHT22;49390;51.380;0.098;2023-06-22T09:09:15;30.10;58.30
63260;DHT22;49390;51.380;0.098;2023-06-22T09:11:47;30.20;57.80
63260;DHT22;49390;51.380;0.098;2023-06-22T09:14:15;30.30;57.40
63260;DHT22;49390;51.380;0.098;2023-06-22T09:16:46;30.40;56.90
63260;DHT22;49390;51.380;0.098;2023-06-22T09:19:14;30.40;56.10
63260;DHT22;49390;51.380;0.098;2023-06-22T09:21:45;30.20;56.20
63260;DHT22;49390;51.380;0.098;2023-06-22T09:24:15;29.90;56.80
63260;DHT22;49390;51.380;0.098;2023-06-22T09:26:46;29.70;57.20
63260;DHT22;49390;51.380;0.098;2023-06-22T09:29:14;29.40;57.20
63260;DHT22;49390;51.380;0.098;2023-06-22T09:31:45;29.10;57.70
63260;DHT22;49390;51.380;0.098;2023-06-22T09:34:15;28.90;58.30
63260;DHT22;49390;51.380;0.098;2023-06-22T09:36:49;28.80;58.30
63260;DHT22;49390;51.380;0.098;2023-06-22T09:39:20;28.50;57.50
63260;DHT22;49390;51.380;0.098;2023-06-22T09:41:51;28.10;57.40
63260;DHT22;49390;51.380;0.098;2023-06-22T09:44:19;27.70;57.60
63260;DHT22;49390;51.380;0.098;2023-06-22T09:46:47;27.50;58.20
63260;DHT22;49390;51.380;0.098;2023-06-22T09:49:15;27.30;58.90
63260;DHT22;49390;51.380;0.098;2023-06-22T09:51:45;27.30;59.50
63260;DHT22;49390;51.380;0.098;2023-06-22T09:54:16;27.60;59.20
63260;DHT22;49390;51.380;0.098;2023-06-22T09:56:49;27.80;58.10
63260;DHT22;49390;51.380;0.098;2023-06-22T09:59:17;28.10;57.80
63260;DHT22;49390;51.380;0.098;2023-06-22T10:01:48;28.20;56.90
63260;DHT22;49390;51.380;0.098;2023-06-22T10:04:16;28.40;56.50
63260;DHT22;49390;51.380;0.098;2023-06-22T10:06:47;28.50;55.90
63260;DHT22;49390;51.380;0.098;2023-06-22T10:09:17;28.60;56.00
63260;DHT22;49390;51.380;0.098;2023-06-22T10:11:46;28.70;55.70
63260;DHT22;49390;51.380;0.098;2023-06-22T10:14:14;29.00;55.00
63260;DHT22;49390;51.380;0.098;2023-06-22T10:16:45;29.00;53.50
63260;DHT22;49390;51.380;0.098;2023-06-22T10:19:13;29.10;52.90
63260;DHT22;49390;51.380;0.098;2023-06-22T10:21:44;29.10;52.60
63260;DHT22;49390;51.380;0.098;2023-06-22T10:24:12;29.10;52.60
63260;DHT22;49390;51.380;0.098;2023-06-22T10:26:42;29.00;51.50
63260;DHT22;49390;51.380;0.098;2023-06-22T10:29:11;29.00;51.60
63260;DHT22;49390;51.380;0.098;2023-06-22T10:31:44;29.00;51.90
63260;DHT22;49390;51.380;0.098;2023-06-22T10:34:15;29.00;52.00
63260;DHT22;49390;51.380;0.098;2023-06-22T10:36:45;29.10;52.20
63260;DHT22;49390;51.380;0.098;2023-06-22T10:39:16;29.00;52.40
63260;DHT22;49390;51.380;0.098;2023-06-22T10:41:44;29.00;52.70
63260;DHT22;49390;51.380;0.098;2023-06-22T10:44:15;28.80;52.90
63260;DHT22;49390;51.380;0.098;2023-06-22T10:46:43;28.50;53.40
63260;DHT22;49390;51.380;0.098;2023-06-22T10:49:11;28.40;54.00
63260;DHT22;49390;51.380;0.098;2023-06-22T10:51:39;28.20;54.20
63260;DHT22;49390;51.380;0.098;2023-06-22T10:54:07;28.10;54.10
63260;DHT22;49390;51.380;0.098;2023-06-22T10:56:38;28.20;53.30
63260;DHT22;49390;51.380;0.098;2023-06-22T10:59:06;28.40;52.30
63260;DHT22;49390;51.380;0.098;2023-06-22T11:01:37;28.60;51.80
63260;DHT22;49390;51.380;0.098;2023-06-22T11:04:06;28.70;51.00
63260;DHT22;49390;51.380;0.098;2023-06-22T11:06:36;28.70;50.00
63260;DHT22;49390;51.380;0.098;2023-06-22T11:09:11;28.70;49.80
63260;DHT22;49390;51.380;0.098;2023-06-22T11:11:44;28.80;49.60
63260;DHT22;49390;51.380;0.098;2023-06-22T11:14:16;28.90;49.70
63260;DHT22;49390;51.380;0.098;2023-06-22T11:16:47;29.10;49.80
63260;DHT22;49390;51.380;0.098;2023-06-22T11:19:21;29.10;49.90
63260;DHT22;49390;51.380;0.098;2023-06-22T11:21:55;29.20;50.10
63260;DHT22;49390;51.380;0.098;2023-06-22T11:24:28;29.10;50.10
63260;DHT22;49390;51.380;0.098;2023-06-22T11:26:59;29.00;50.00
63260;DHT22;49390;51.380;0.098;2023-06-22T11:29:29;28.80;50.30
63260;DHT22;49390;51.380;0.098;2023-06-22T11:32:09;28.60;50.50
63260;DHT22;49390;51.380;0.098;2023-06-22T11:34:43;28.50;50.10
63260;DHT22;49390;51.380;0.098;2023-06-22T11:37:18;28.70;49.90
63260;DHT22;49390;51.380;0.098;2023-06-22T11:39:49;28.80;49.50
63260;DHT22;49390;51.380;0.098;2023-06-22T11:42:35;29.00;48.90
63260;DHT22;49390;51.380;0.098;2023-06-22T11:45:06;29.20;47.90
63260;DHT22;49390;51.380;0.098;2023-06-22T11:47:37;29.40;47.30
63260;DHT22;49390;51.380;0.098;2023-06-22T11:50:06;29.50;47.30
63260;DHT22;49390;51.380;0.098;2023-06-22T11:52:35;29.60;47.70
63260;DHT22;49390;51.380;0.098;2023-06-22T11:55:08;29.80;47.70
63260;DHT22;49390;51.380;0.098;2023-06-22T11:57:54;29.90;47.50
63260;DHT22;49390;51.380;0.098;2023-06-22T12:00:23;29.80;48.20
63260;DHT22;49390;51.380;0.098;2023-06-22T12:03:00;29.60;48.10
63260;DHT22;49390;51.380;0.098;2023-06-22T12:05:31;29.40;48.80
63260;DHT22;49390;51.380;0.098;2023-06-22T12:08:02;29.20;48.30
63260;DHT22;49390;51.380;0.098;2023-06-22T12:10:34;29.00;48.80
63260;DHT22;49390;51.380;0.098;2023-06-22T12:13:05;28.90;48.90
63260;DHT22;49390;51.380;0.098;2023-06-22T12:15:34;28.90;48.30
63260;DHT22;49390;51.380;0.098;2023-06-22T12:18:05;28.90;48.00
63260;DHT22;49390;51.380;0.098;2023-06-22T12:20:36;29.00;47.90
63260;DHT22;49390;51.380;0.098;2023-06-22T12:23:04;29.00;47.30
63260;DHT22;49390;51.380;0.098;2023-06-22T12:25:34;29.10;46.50
63260;DHT22;49390;51.380;0.098;2023-06-22T12:28:05;29.30;45.60
63260;DHT22;49390;51.380;0.098;2023-06-22T12:30:34;29.50;45.40
63260;DHT22;49390;51.380;0.098;2023-06-22T12:33:09;29.70;45.40
63260;DHT22;49390;51.380;0.098;2023-06-22T12:35:37;29.80;45.20
63260;DHT22;49390;51.380;0.098;2023-06-22T12:38:05;29.80;45.80
63260;DHT22;49390;51.380;0.098;2023-06-22T12:40:40;29.70;45.70
63260;DHT22;49390;51.380;0.098;2023-06-22T12:43:09;29.50;45.40
63260;DHT22;49390;51.380;0.098;2023-06-22T12:45:37;29.40;45.50
63260;DHT22;49390;51.380;0.098;2023-06-22T12:48:07;29.40;44.80
63260;DHT22;49390;51.380;0.098;2023-06-22T12:50:38;29.40;44.80
63260;DHT22;49390;51.380;0.098;2023-06-22T12:53:09;29.50;44.50
63260;DHT22;49390;51.380;0.098;2023-06-22T12:55:40;29.50;44.30
63260;DHT22;49390;51.380;0.098;2023-06-22T12:58:10;29.60;44.20
63260;DHT22;49390;51.380;0.098;2023-06-22T13:00:39;29.70;44.10
63260;DHT22;49390;51.380;0.098;2023-06-22T13:03:07;29.80;43.90
63260;DHT22;49390;51.380;0.098;2023-06-22T13:05:35;29.90;43.80
63260;DHT22;49390;51.380;0.098;2023-06-22T13:08:06;30.00;43.60
63260;DHT22;49390;51.380;0.098;2023-06-22T13:10:39;30.00;43.90
63260;DHT22;49390;51.380;0.098;2023-06-22T13:13:10;30.10;44.00
63260;DHT22;49390;51.380;0.098;2023-06-22T13:15:38;30.00;44.00
63260;DHT22;49390;51.380;0.098;2023-06-22T13:18:09;29.80;44.50
63260;DHT22;49390;51.380;0.098;2023-06-22T13:20:37;29.60;45.00
63260;DHT22;49390;51.380;0.098;2023-06-22T13:23:13;29.50;44.40
63260;DHT22;49390;51.380;0.098;2023-06-22T13:25:44;29.20;44.10
63260;DHT22;49390;51.380;0.098;2023-06-22T13:28:15;28.90;44.50
63260;DHT22;49390;51.380;0.098;2023-06-22T13:30:58;28.70;44.70
63260;DHT22;49390;51.380;0.098;2023-06-22T13:33:31;28.80;44.40
63260;DHT22;49390;51.380;0.098;2023-06-22T13:36:02;28.90;44.40
63260;DHT22;49390;51.380;0.098;2023-06-22T13:38:31;29.10;44.60
63260;DHT22;49390;51.380;0.098;2023-06-22T13:41:00;29.30;44.20
63260;DHT22;49390;51.380;0.098;2023-06-22T13:43:29;29.50;44.10
63260;DHT22;49390;51.380;0.098;2023-06-22T13:45:57;29.50;43.90
63260;DHT22;49390;51.380;0.098;2023-06-22T13:48:25;29.50;44.10
63260;DHT22;49390;51.380;0.098;2023-06-22T13:50:58;29.40;43.70
63260;DHT22;49390;51.380;0.098;2023-06-22T13:53:26;29.10;43.80
63260;DHT22;49390;51.380;0.098;2023-06-22T13:55:56;29.00;43.60
63260;DHT22;49390;51.380;0.098;2023-06-22T13:58:24;28.80;43.60
63260;DHT22;49390;51.380;0.098;2023-06-22T14:00:59;28.70;44.40
63260;DHT22;49390;51.380;0.098;2023-06-22T14:03:28;28.60;44.60
63260;DHT22;49390;51.380;0.098;2023-06-22T14:06:00;28.80;44.20
63260;DHT22;49390;51.380;0.098;2023-06-22T14:08:32;28.90;43.00
63260;DHT22;49390;51.380;0.098;2023-06-22T14:11:07;28.90;43.00
63260;DHT22;49390;51.380;0.098;2023-06-22T14:13:38;29.10;42.70
63260;DHT22;49390;51.380;0.098;2023-06-22T14:16:06;29.20;42.30
63260;DHT22;49390;51.380;0.098;2023-06-22T14:18:35;29.40;42.10
63260;DHT22;49390;51.380;0.098;2023-06-22T14:21:05;29.60;42.10
63260;DHT22;49390;51.380;0.098;2023-06-22T14:23:36;29.80;41.80
63260;DHT22;49390;51.380;0.098;2023-06-22T14:26:06;30.10;41.40
63260;DHT22;49390;51.380;0.098;2023-06-22T14:28:39;30.30;41.00
63260;DHT22;49390;51.380;0.098;2023-06-22T14:31:07;30.40;41.00
63260;DHT22;49390;51.380;0.098;2023-06-22T14:33:35;30.60;40.90
63260;DHT22;49390;51.380;0.098;2023-06-22T14:36:04;30.70;40.90
63260;DHT22;49390;51.380;0.098;2023-06-22T14:38:34;30.80;40.80
63260;DHT22;49390;51.380;0.098;2023-06-22T14:41:05;30.80;40.70
63260;DHT22;49390;51.380;0.098;2023-06-22T14:43:49;30.80;40.50
63260;DHT22;49390;51.380;0.098;2023-06-22T14:46:24;30.90;40.50
63260;DHT22;49390;51.380;0.098;2023-06-22T14:48:57;30.70;40.20
63260;DHT22;49390;51.380;0.098;2023-06-22T14:51:25;30.60;40.80
63260;DHT22;49390;51.380;0.098;2023-06-22T14:53:58;30.40;41.20
63260;DHT22;49390;51.380;0.098;2023-06-22T14:56:28;30.10;41.30
63260;DHT22;49390;51.380;0.098;2023-06-22T14:58:59;29.90;41.70
63260;DHT22;49390;51.380;0.098;2023-06-22T15:01:30;29.80;42.10
63260;DHT22;49390;51.380;0.098;2023-06-22T15:04:00;29.80;41.50
63260;DHT22;49390;51.380;0.098;2023-06-22T15:06:28;29.90;41.20
63260;DHT22;49390;51.380;0.098;2023-06-22T15:08:57;30.00;41.10
63260;DHT22;49390;51.380;0.098;2023-06-22T15:11:25;30.10;41.20
63260;DHT22;49390;51.380;0.098;2023-06-22T15:13:53;30.30;40.90
63260;DHT22;49390;51.380;0.098;2023-06-22T15:16:23;30.50;40.50
63260;DHT22;49390;51.380;0.098;2023-06-22T15:18:51;30.60;40.30
63260;DHT22;49390;51.380;0.098;2023-06-22T15:21:19;30.80;40.10
63260;DHT22;49390;51.380;0.098;2023-06-22T15:23:50;31.00;40.00
63260;DHT22;49390;51.380;0.098;2023-06-22T15:26:18;31.10;39.50
63260;DHT22;49390;51.380;0.098;2023-06-22T15:28:51;31.20;39.20
63260;DHT22;49390;51.380;0.098;2023-06-22T15:31:21;31.20;39.10
63260;DHT22;49390;51.380;0.098;2023-06-22T15:33:50;31.20;39.10
63260;DHT22;49390;51.380;0.098;2023-06-22T15:36:18;31.30;38.70
63260;DHT22;49390;51.380;0.098;2023-06-22T15:38:49;31.20;37.70
63260;DHT22;49390;51.380;0.098;2023-06-22T15:41:19;31.00;37.60
63260;DHT22;49390;51.380;0.098;2023-06-22T15:43:48;30.80;38.30
63260;DHT22;49390;51.380;0.098;2023-06-22T15:46:16;30.70;38.70
63260;DHT22;49390;51.380;0.098;2023-06-22T15:48:48;30.50;38.90
63260;DHT22;49390;51.380;0.098;2023-06-22T15:51:23;30.30;39.00
63260;DHT22;49390;51.380;0.098;2023-06-22T15:53:54;30.40;39.60
63260;DHT22;49390;51.380;0.098;2023-06-22T15:56:28;30.40;40.40
63260;DHT22;49390;51.380;0.098;2023-06-22T15:58:56;30.30;39.30